Rosedale, Illinois
Current Conditions -  °F | °C
As of 12:54 PM on Saturday 25 Oct 2014 (Local Time) from KSET Reporting Station
Clear Clear  
Wind Chill: 76°   Ceiling: Unl
Heat Index: 76°   Visibility: 7mi
Dew Point: 58°   Wind: 5mph
Humidity: 54%   Direction: NA
Pressure: 30.02"   Gusts: NA
Location:  39.1226°N, 90.5371°W
Report Text: KSET 251754Z AUTO VRB04KT 7SM CLR 24/14 A3002 RMK AO2 SLP162 T02440144 10244 20100 56007
Loading
Personal Weather Stations






























Interactive Weather Map
Tropical Storm Tracking
New forecast layout! Learn more

10-Day Weather Forecast

Advertisements
Track Severe Weather on mobile